Time;durP1;ratioP1;P1;durP2;ratioP2;P2;SDS_P1;SDS_P2;PMS_P1;PMS_P2;Temp;Humidity;BMP_temperature;BMP_pressure;BME280_temperature;BME280_humidity;BME280_pressure;Samples;Min_cycle;Max_cycle;Signal;HPM_P1;HPM_P2
2022/12/08 00:01:04;;;;;;;1.73;1.35;;;3.90;99.90;;;;;;5064977;28;20037;-67
2022/12/08 00:03:30;;;;;;;6.25;1.60;;;3.90;99.90;;;;;;5048969;28;20061;-67
2022/12/08 00:11:24;;;;;;;3.42;1.38;;;4.00;99.90;;;;;;5050809;28;20405;-67
2022/12/08 00:13:50;;;;;;;6.45;1.50;;;3.90;99.90;;;;;;5049718;28;20236;-67
2022/12/08 00:16:16;;;;;;;1.67;1.42;;;3.90;99.90;;;;;;5049145;28;20123;-67
2022/12/08 00:18:42;;;;;;;7.28;1.40;;;3.90;99.90;;;;;;5050613;28;20041;-67
2022/12/08 00:21:07;;;;;;;7.95;1.90;;;3.90;99.90;;;;;;5050301;28;20041;-68
2022/12/08 00:23:33;;;;;;;1.40;1.30;;;3.90;99.90;;;;;;5050289;28;20033;-67
2022/12/08 00:26:05;;;;;;;4.35;1.42;;;4.00;99.90;;;;;;5057420;28;20033;-67
2022/12/08 00:28:32;;;;;;;4.78;1.45;;;3.90;99.90;;;;;;5074126;28;20036;-67
2022/12/08 00:30:57;;;;;;;2.35;1.30;;;3.90;99.90;;;;;;5073819;28;20043;-67
2022/12/08 00:33:23;;;;;;;2.20;1.38;;;3.80;99.90;;;;;;5073942;28;20040;-67
2022/12/08 00:35:49;;;;;;;4.75;1.25;;;3.80;99.90;;;;;;5073123;28;20072;-67
2022/12/08 00:38:15;;;;;;;3.70;1.27;;;3.80;99.90;;;;;;5055807;28;20040;-67
2022/12/08 00:40:45;;;;;;;5.20;1.58;;;3.80;99.90;;;;;;5073958;28;20485;-67
2022/12/08 00:43:10;;;;;;;3.33;1.30;;;3.80;99.90;;;;;;5073637;28;20410;-67
2022/12/08 00:45:36;;;;;;;2.03;1.45;;;3.70;99.90;;;;;;5071569;28;20048;-67
2022/12/08 00:48:01;;;;;;;4.07;1.20;;;3.60;99.90;;;;;;5073865;28;20041;-67
2022/12/08 00:50:27;;;;;;;5.80;1.60;;;3.70;99.90;;;;;;5073645;28;20570;-67
2022/12/08 00:52:52;;;;;;;3.72;1.27;;;3.60;99.90;;;;;;5073594;28;20036;-67
2022/12/08 00:55:18;;;;;;;2.72;1.40;;;3.60;99.90;;;;;;5072888;28;20126;-67
2022/12/08 00:57:44;;;;;;;1.70;1.60;;;3.60;99.90;;;;;;5073478;28;20257;-67
2022/12/08 01:00:10;;;;;;;2.15;1.30;;;3.60;99.90;;;;;;5073045;28;20039;-67
2022/12/08 01:02:35;;;;;;;4.80;1.55;;;3.60;99.90;;;;;;5073446;28;20040;-67
2022/12/08 01:05:01;;;;;;;3.08;1.52;;;3.50;99.90;;;;;;5072714;28;20036;-67
2022/12/08 01:07:26;;;;;;;4.53;2.40;;;3.50;99.90;;;;;;5073009;28;20072;-67
2022/12/08 01:09:52;;;;;;;4.07;1.77;;;3.50;99.90;;;;;;5073220;28;20052;-67
2022/12/08 01:12:18;;;;;;;3.42;2.25;;;3.50;99.90;;;;;;5073044;28;20051;-67
2022/12/08 01:14:43;;;;;;;3.60;2.00;;;3.50;99.90;;;;;;5072376;28;20040;-67
2022/12/08 01:17:09;;;;;;;3.78;1.77;;;3.50;99.90;;;;;;5073116;28;20083;-67
2022/12/08 01:19:35;;;;;;;4.43;2.10;;;3.50;99.90;;;;;;5073389;28;20040;-67
2022/12/08 01:22:01;;;;;;;3.40;2.15;;;3.40;99.90;;;;;;5073246;28;20036;-67
2022/12/08 01:24:26;;;;;;;5.40;2.50;;;3.50;99.90;;;;;;5072387;28;20046;-67
2022/12/08 01:26:52;;;;;;;7.60;2.35;;;3.50;99.90;;;;;;5073107;28;20048;-67
2022/12/08 01:29:17;;;;;;;6.05;2.20;;;3.40;99.90;;;;;;5072749;28;20463;-66
2022/12/08 01:31:43;;;;;;;2.80;2.33;;;3.40;99.90;;;;;;5072799;28;20055;-67
2022/12/08 01:34:10;;;;;;;3.72;2.40;;;3.40;99.90;;;;;;5072111;28;20112;-67
2022/12/08 01:36:37;;;;;;;5.50;2.25;;;3.40;99.90;;;;;;5072027;28;20076;-67
2022/12/08 01:39:05;;;;;;;4.03;2.55;;;3.40;99.90;;;;;;5072685;28;20036;-67
2022/12/08 01:41:32;;;;;;;3.15;2.80;;;3.40;99.90;;;;;;5072510;28;20070;-67
2022/12/08 01:44:00;;;;;;;6.68;2.65;;;3.40;99.90;;;;;;5071957;28;20105;-67
2022/12/08 01:46:28;;;;;;;8.88;2.63;;;3.40;99.90;;;;;;5072587;28;20044;-67
2022/12/08 01:49:03;;;;;;;4.82;2.50;;;3.40;99.90;;;;;;5072494;28;20041;-67
2022/12/08 01:51:33;;;;;;;4.28;2.92;;;3.50;99.90;;;;;;5072534;28;20090;-67
2022/12/08 01:54:01;;;;;;;6.97;3.15;;;3.50;99.90;;;;;;5071653;28;20050;-67
2022/12/08 01:56:38;;;;;;;2.28;2.08;;;3.50;99.90;;;;;;5072298;28;20060;-67
2022/12/08 01:59:04;;;;;;;5.05;3.15;;;3.60;99.90;;;;;;5072411;28;20040;-67
2022/12/08 02:01:30;;;;;;;3.20;2.47;;;3.60;99.90;;;;;;5072467;28;20045;-67
2022/12/08 02:04:01;;;;;;;3.47;2.60;;;3.60;99.90;;;;;;5070193;28;20059;-67
2022/12/08 02:06:30;;;;;;;5.22;2.63;;;3.70;99.90;;;;;;5071842;28;20048;-67
2022/12/08 02:08:57;;;;;;;8.75;3.22;;;3.70;99.90;;;;;;5072374;28;20053;-67
2022/12/08 02:11:22;;;;;;;7.45;2.70;;;3.70;99.90;;;;;;5072109;28;20059;-67
2022/12/08 02:13:50;;;;;;;7.25;2.85;;;3.70;99.90;;;;;;5071365;28;20036;-67
2022/12/08 02:16:38;;;;;;;4.15;2.70;;;3.70;99.90;;;;;;5071916;28;20127;-67
2022/12/08 02:19:41;;;;;;;4.70;2.60;;;3.70;99.90;;;;;;5071864;28;20044;-67
2022/12/08 02:22:15;;;;;;;7.50;2.90;;;3.80;99.90;;;;;;5071894;28;20036;-67
2022/12/08 02:25:22;;;;;;;8.90;3.30;;;3.80;99.90;;;;;;5071072;28;20501;-67
2022/12/08 02:28:03;;;;;;;3.90;2.65;;;3.80;99.90;;;;;;5060788;28;20553;-67
2022/12/08 02:30:40;;;;;;;8.80;3.05;;;3.90;99.90;;;;;;5072006;28;20035;-67
2022/12/08 02:34:00;;;;;;;8.60;2.83;;;3.90;99.90;;;;;;5071611;28;20066;-68
2022/12/08 02:36:40;;;;;;;3.92;2.80;;;3.90;99.90;;;;;;5048899;28;20131;-68
2022/12/08 02:39:31;;;;;;;2.47;2.25;;;3.90;99.90;;;;;;5068989;28;20113;-68
2022/12/08 02:42:37;;;;;;;3.45;2.95;;;3.90;99.90;;;;;;5071534;28;20037;-68
2022/12/08 02:45:16;;;;;;;4.80;2.05;;;3.90;99.90;;;;;;5048130;28;20036;-68
2022/12/08 02:47:42;;;;;;;3.95;2.33;;;3.90;99.90;;;;;;5048709;28;20041;-68
2022/12/08 02:50:09;;;;;;;2.58;2.35;;;4.00;99.90;;;;;;5015751;28;20057;-68
2022/12/08 02:52:47;;;;;;;7.55;2.33;;;4.00;99.90;;;;;;5048697;28;20557;-68
2022/12/08 02:55:22;;;;;;;4.80;2.60;;;4.00;99.90;;;;;;5014915;28;20521;-68
2022/12/08 02:58:11;;;;;;;2.55;2.22;;;3.90;99.90;;;;;;5048550;28;20116;-68
2022/12/08 03:01:00;;;;;;;2.92;2.00;;;4.00;99.90;;;;;;5048754;28;20045;-68
2022/12/08 03:03:40;;;;;;;4.00;2.00;;;4.00;99.90;;;;;;5047431;28;20056;-68
2022/12/08 03:06:31;;;;;;;3.10;2.10;;;4.00;99.90;;;;;;5048134;28;20048;-68
2022/12/08 03:09:09;;;;;;;4.00;2.17;;;4.00;99.90;;;;;;5048446;28;20527;-68
2022/12/08 03:12:01;;;;;;;5.90;2.25;;;4.00;99.90;;;;;;5048582;28;20045;-68
2022/12/08 03:14:28;;;;;;;4.47;2.60;;;4.00;99.90;;;;;;5045863;28;20068;-68
2022/12/08 03:16:56;;;;;;;5.55;2.80;;;4.10;99.90;;;;;;5070018;28;20374;-68
2022/12/08 03:19:33;;;;;;;7.47;2.70;;;4.10;99.90;;;;;;5070980;28;20037;-68
2022/12/08 03:22:03;;;;;;;4.32;2.70;;;4.00;99.90;;;;;;5071083;28;20094;-67
2022/12/08 03:24:36;;;;;;;5.85;2.90;;;4.10;99.90;;;;;;5070409;28;20406;-68
2022/12/08 03:27:06;;;;;;;5.32;2.75;;;4.10;99.90;;;;;;5071130;28;20040;-68
2022/12/08 03:29:33;;;;;;;4.35;2.88;;;4.10;99.90;;;;;;5070793;28;20041;-68
2022/12/08 03:32:31;;;;;;;7.22;2.95;;;4.10;99.90;;;;;;5070995;28;20033;-68
2022/12/08 03:35:00;;;;;;;4.47;2.97;;;4.10;99.90;;;;;;5070070;28;20106;-68
2022/12/08 03:37:26;;;;;;;6.55;2.83;;;4.10;99.90;;;;;;5070625;28;20048;-68
2022/12/08 03:39:52;;;;;;;3.78;3.00;;;4.10;99.90;;;;;;5052792;28;20040;-69
2022/12/08 03:42:17;;;;;;;4.38;3.28;;;4.10;99.90;;;;;;5070935;28;20041;-68
2022/12/08 03:44:43;;;;;;;6.03;3.22;;;4.10;99.90;;;;;;5070128;28;20040;-67
2022/12/08 03:47:09;;;;;;;5.43;3.15;;;4.00;99.90;;;;;;5070664;28;20036;-68
2022/12/08 03:49:34;;;;;;;5.90;3.17;;;4.10;99.90;;;;;;5070633;28;20044;-68
2022/12/08 03:52:00;;;;;;;5.65;3.72;;;4.10;99.90;;;;;;5070724;28;20040;-67
2022/12/08 03:54:25;;;;;;;4.13;3.20;;;4.10;99.90;;;;;;5070030;28;20052;-68
2022/12/08 03:56:51;;;;;;;5.50;3.33;;;4.10;99.90;;;;;;5070524;28;20040;-68
2022/12/08 03:59:17;;;;;;;4.00;3.40;;;4.10;99.90;;;;;;5070869;28;20120;-68
2022/12/08 04:01:42;;;;;;;6.70;3.63;;;4.10;99.90;;;;;;5074474;28;20063;-68
2022/12/08 04:04:08;;;;;;;5.78;3.47;;;4.10;99.90;;;;;;5073722;28;20094;-70
2022/12/08 04:06:33;;;;;;;6.20;3.40;;;4.10;99.90;;;;;;5074261;28;20060;-70
2022/12/08 04:08:59;;;;;;;6.65;3.65;;;4.10;99.90;;;;;;5074550;28;20032;-69
2022/12/08 04:11:25;;;;;;;5.40;3.55;;;4.10;99.90;;;;;;5074485;28;20078;-68
2022/12/08 04:13:50;;;;;;;5.85;3.50;;;4.10;99.90;;;;;;5072609;28;20048;-69
2022/12/08 04:16:19;;;;;;;10.00;4.45;;;4.10;99.90;;;;;;5074064;28;20413;-68
2022/12/08 04:18:45;;;;;;;4.95;3.22;;;4.10;99.90;;;;;;5074004;28;20040;-69
2022/12/08 04:21:12;;;;;;;4.72;3.47;;;4.10;99.90;;;;;;5074360;28;20048;-69
2022/12/08 04:23:37;;;;;;;6.03;3.95;;;4.20;99.90;;;;;;5073952;28;20566;-68
2022/12/08 04:26:03;;;;;;;5.50;3.42;;;4.10;99.90;;;;;;5073529;28;20028;-68
2022/12/08 04:28:29;;;;;;;5.07;3.90;;;4.10;99.90;;;;;;5073943;28;20041;-68
2022/12/08 04:30:55;;;;;;;4.60;3.70;;;4.10;99.90;;;;;;5074001;28;20040;-68
2022/12/08 04:33:21;;;;;;;6.15;3.53;;;4.10;99.90;;;;;;5074138;28;20048;-68
2022/12/08 04:35:46;;;;;;;6.10;3.42;;;4.10;99.90;;;;;;5073359;28;20041;-68
2022/12/08 04:38:12;;;;;;;6.97;3.75;;;4.20;99.90;;;;;;5073725;28;20040;-68
2022/12/08 04:40:39;;;;;;;4.95;3.65;;;4.20;99.90;;;;;;5073903;28;20068;-68
2022/12/08 04:43:04;;;;;;;4.07;3.03;;;4.20;99.90;;;;;;5073752;28;20052;-68
2022/12/08 04:45:30;;;;;;;4.35;3.50;;;4.20;99.90;;;;;;5072798;28;20038;-68
2022/12/08 04:48:00;;;;;;;4.35;3.90;;;4.20;99.90;;;;;;5073549;28;20083;-68
2022/12/08 04:50:26;;;;;;;8.05;3.40;;;4.30;99.90;;;;;;5073673;28;20075;-68
2022/12/08 04:52:52;;;;;;;6.65;3.20;;;4.20;99.90;;;;;;5073547;28;20036;-68
2022/12/08 04:55:17;;;;;;;4.45;3.53;;;4.20;99.90;;;;;;5072752;28;20044;-68
2022/12/08 04:57:43;;;;;;;9.07;3.78;;;4.30;99.90;;;;;;5073455;28;20063;-68
2022/12/08 05:00:09;;;;;;;7.72;3.20;;;4.30;99.90;;;;;;5073247;28;20036;-67
2022/12/08 05:02:36;;;;;;;5.22;3.30;;;4.30;99.90;;;;;;5073268;28;20087;-68
2022/12/08 05:05:02;;;;;;;5.78;3.40;;;4.20;99.90;;;;;;5072601;28;20492;-68
2022/12/08 05:07:27;;;;;;;3.95;3.00;;;4.30;99.90;;;;;;5073305;28;20039;-68
2022/12/08 05:09:53;;;;;;;3.38;3.08;;;4.30;99.90;;;;;;5073565;28;20548;-68
2022/12/08 05:12:19;;;;;;;4.10;2.38;;;4.30;99.90;;;;;;5071909;28;20072;-68
2022/12/08 05:14:46;;;;;;;2.95;2.67;;;4.20;99.90;;;;;;5072651;28;20044;-67
2022/12/08 05:17:11;;;;;;;3.75;2.80;;;4.20;99.90;;;;;;5073070;28;20048;-67
2022/12/08 05:19:37;;;;;;;2.88;2.53;;;4.30;99.90;;;;;;5073381;28;20048;-67
2022/12/08 05:22:02;;;;;;;2.90;2.45;;;4.20;99.90;;;;;;5071449;28;20115;-68
2022/12/08 05:24:28;;;;;;;4.10;2.47;;;4.20;99.90;;;;;;5072465;28;20403;-68
2022/12/08 05:26:54;;;;;;;3.63;2.75;;;4.20;99.90;;;;;;5073108;28;20048;-67
2022/12/08 05:29:20;;;;;;;3.03;2.47;;;4.20;99.90;;;;;;5073254;28;20736;-67
2022/12/08 05:31:45;;;;;;;7.22;2.65;;;4.20;99.90;;;;;;5073156;28;20123;-68
2022/12/08 05:34:11;;;;;;;3.22;2.55;;;4.20;99.90;;;;;;5071898;28;20036;-68
2022/12/08 05:36:36;;;;;;;4.85;2.65;;;4.20;99.90;;;;;;5072897;28;20078;-67
2022/12/08 05:39:02;;;;;;;5.57;3.10;;;4.30;99.90;;;;;;5072644;28;20033;-67
2022/12/08 05:41:28;;;;;;;4.28;2.80;;;4.20;99.90;;;;;;5072561;28;20071;-67
2022/12/08 05:43:53;;;;;;;2.42;2.28;;;4.20;99.90;;;;;;5071926;28;20041;-68
2022/12/08 05:46:19;;;;;;;6.35;2.63;;;4.20;99.90;;;;;;5072702;28;20040;-68
2022/12/08 05:48:44;;;;;;;6.28;3.00;;;4.20;99.90;;;;;;5072672;28;20054;-67
2022/12/08 05:51:22;;;;;;;5.63;2.83;;;4.20;99.90;;;;;;5054584;28;20588;-67
2022/12/08 05:53:49;;;;;;;3.70;2.60;;;4.20;99.90;;;;;;5071544;28;20039;-67
2022/12/08 05:56:15;;;;;;;5.30;2.75;;;4.20;99.90;;;;;;5072202;28;20028;-67
2022/12/08 05:58:41;;;;;;;5.25;2.70;;;4.20;99.90;;;;;;5070836;28;20102;-68
2022/12/08 06:01:07;;;;;;;3.50;2.65;;;4.20;99.90;;;;;;5071056;28;20113;-67
2022/12/08 06:03:32;;;;;;;4.30;2.60;;;4.20;99.90;;;;;;5072308;28;20075;-67
2022/12/08 06:05:58;;;;;;;7.43;2.55;;;4.20;99.90;;;;;;5069984;28;20548;-68
2022/12/08 06:08:24;;;;;;;4.13;2.80;;;4.20;99.90;;;;;;5072332;28;20181;-67
2022/12/08 06:10:49;;;;;;;3.67;2.75;;;4.20;99.90;;;;;;5072256;28;20040;-67
2022/12/08 06:13:15;;;;;;;5.22;2.55;;;4.20;99.90;;;;;;5072075;28;20040;-67
2022/12/08 06:15:41;;;;;;;2.67;2.47;;;4.20;99.90;;;;;;5071435;28;20573;-67
2022/12/08 06:18:08;;;;;;;5.00;3.20;;;4.20;99.90;;;;;;5071893;28;20047;-67
2022/12/08 06:20:34;;;;;;;6.07;3.00;;;4.10;99.90;;;;;;5071829;28;20515;-67
2022/12/08 06:22:59;;;;;;;6.95;2.83;;;4.20;99.90;;;;;;5071475;28;20048;-68
2022/12/08 06:25:25;;;;;;;6.70;2.85;;;4.10;99.90;;;;;;5070843;28;20123;-67
2022/12/08 06:27:51;;;;;;;3.17;2.88;;;4.10;99.90;;;;;;5071967;28;20044;-67
2022/12/08 06:30:17;;;;;;;3.83;2.80;;;4.20;99.90;;;;;;5071699;28;20043;-67
2022/12/08 06:32:42;;;;;;;3.33;2.63;;;4.20;99.90;;;;;;5071676;28;20489;-67
2022/12/08 06:35:09;;;;;;;11.75;3.20;;;4.20;99.90;;;;;;5071105;28;20036;-67
2022/12/08 06:37:35;;;;;;;4.93;2.90;;;4.20;99.90;;;;;;5071216;28;20053;-67
2022/12/08 06:40:00;;;;;;;6.10;3.42;;;4.10;99.90;;;;;;5071731;28;20509;-68
2022/12/08 06:42:45;;;;;;;3.70;2.80;;;4.20;99.90;;;;;;5071393;28;20044;-68
2022/12/08 06:45:13;;;;;;;5.35;3.15;;;4.20;99.90;;;;;;5070817;28;20413;-67
2022/12/08 06:47:38;;;;;;;4.32;2.95;;;4.20;99.90;;;;;;5070013;28;20059;-68
2022/12/08 06:50:08;;;;;;;3.13;2.83;;;4.20;99.90;;;;;;5071591;28;20048;-68
2022/12/08 06:52:34;;;;;;;4.32;3.10;;;4.20;99.90;;;;;;5071446;28;20044;-68
2022/12/08 06:54:59;;;;;;;4.72;3.35;;;4.10;99.90;;;;;;5070827;28;20070;-68
2022/12/08 06:57:25;;;;;;;3.65;2.90;;;4.10;99.90;;;;;;5070962;28;20052;-67
2022/12/08 06:59:51;;;;;;;3.35;2.80;;;4.10;99.90;;;;;;5071215;28;20036;-67
2022/12/08 07:02:16;;;;;;;3.55;3.08;;;4.10;99.90;;;;;;5070981;28;20047;-67
2022/12/08 07:04:42;;;;;;;3.92;3.03;;;4.00;99.90;;;;;;5070606;28;20047;-67
2022/12/08 07:07:08;;;;;;;4.65;3.20;;;4.00;99.90;;;;;;5070837;28;20496;-68
2022/12/08 07:09:33;;;;;;;5.63;3.38;;;4.00;99.90;;;;;;5071119;28;20048;-68
2022/12/08 07:11:59;;;;;;;5.05;3.85;;;4.00;99.90;;;;;;5071873;28;20067;-68
2022/12/08 07:14:24;;;;;;;5.88;3.45;;;4.00;99.90;;;;;;5072191;28;20519;-68
2022/12/08 07:16:51;;;;;;;6.55;3.35;;;4.10;99.90;;;;;;5073412;28;20051;-68
2022/12/08 07:19:17;;;;;;;4.90;3.58;;;4.00;99.90;;;;;;5066577;28;20112;-68
2022/12/08 07:21:42;;;;;;;4.40;2.85;;;4.00;99.90;;;;;;5068142;28;20068;-68
2022/12/08 07:24:08;;;;;;;4.40;2.30;;;3.90;99.90;;;;;;5058834;28;20067;-68
2022/12/08 07:26:34;;;;;;;3.67;2.67;;;4.00;99.90;;;;;;5060565;28;20083;-67
2022/12/08 07:29:00;;;;;;;3.55;2.53;;;4.00;99.90;;;;;;5062299;28;20040;-68
2022/12/08 07:31:27;;;;;;;5.75;2.20;;;4.00;99.90;;;;;;5066653;28;20040;-68
2022/12/08 07:33:53;;;;;;;4.53;2.60;;;4.00;99.90;;;;;;5058454;28;20097;-68
2022/12/08 07:36:19;;;;;;;4.05;2.70;;;4.10;99.90;;;;;;5050728;28;20460;-68
2022/12/08 07:38:45;;;;;;;3.13;2.58;;;4.10;99.90;;;;;;5050671;28;20551;-70
2022/12/08 07:41:19;;;;;;;8.43;3.90;;;4.10;99.90;;;;;;5051021;28;20044;-70
2022/12/08 07:43:45;;;;;;;3.00;2.42;;;4.10;99.90;;;;;;5050194;28;20088;-71
2022/12/08 07:46:12;;;;;;;5.47;2.92;;;4.00;99.90;;;;;;5044802;28;20072;-70
2022/12/08 07:48:37;;;;;;;2.85;2.60;;;4.00;99.90;;;;;;5041506;28;20552;-69
2022/12/08 07:51:04;;;;;;;3.05;2.63;;;4.00;99.90;;;;;;5047152;28;20083;-68
2022/12/08 07:53:30;;;;;;;3.00;2.70;;;3.90;99.90;;;;;;5048994;28;20033;-68
2022/12/08 07:55:56;;;;;;;4.70;2.55;;;4.00;99.90;;;;;;5047265;28;20052;-68
2022/12/08 07:58:22;;;;;;;2.50;2.28;;;4.00;99.90;;;;;;5046192;28;20037;-68
2022/12/08 08:00:48;;;;;;;3.10;2.55;;;4.00;99.90;;;;;;5050565;28;20037;-68
2022/12/08 08:03:14;;;;;;;4.50;2.72;;;4.00;99.90;;;;;;5050477;28;20406;-68
2022/12/08 08:05:39;;;;;;;3.15;2.40;;;4.00;99.90;;;;;;5049855;28;20534;-68
2022/12/08 08:08:05;;;;;;;4.85;2.50;;;3.90;99.90;;;;;;5050399;28;20048;-68
2022/12/08 08:10:30;;;;;;;3.22;2.47;;;3.90;99.90;;;;;;5050368;28;20052;-68
2022/12/08 08:12:59;;;;;;;3.33;2.30;;;3.90;99.90;;;;;;5050611;28;20037;-68
2022/12/08 08:15:26;;;;;;;5.00;2.20;;;3.90;99.90;;;;;;5049606;28;20094;-68
2022/12/08 08:17:52;;;;;;;2.33;1.95;;;3.90;99.90;;;;;;5053915;28;20040;-68
2022/12/08 08:20:19;;;;;;;7.82;2.03;;;3.90;99.90;;;;;;5060954;28;20024;-68
2022/12/08 08:22:46;;;;;;;5.78;1.45;;;3.80;99.90;;;;;;5060744;28;20037;-68
2022/12/08 08:25:12;;;;;;;2.65;1.90;;;3.80;99.90;;;;;;5057722;28;20029;-68
2022/12/08 08:27:38;;;;;;;2.00;1.90;;;3.90;99.90;;;;;;5059438;28;20526;-68
2022/12/08 08:30:06;;;;;;;2.08;1.38;;;3.90;99.90;;;;;;5065910;28;20115;-68
2022/12/08 08:32:32;;;;;;;8.02;1.65;;;3.90;99.90;;;;;;5066302;28;20055;-70
2022/12/08 08:34:58;;;;;;;5.75;1.75;;;3.90;99.90;;;;;;5068890;28;20048;-69
2022/12/08 08:37:24;;;;;;;1.80;1.40;;;3.90;99.90;;;;;;5067744;28;20406;-68
2022/12/08 08:39:49;;;;;;;5.55;1.88;;;3.90;99.90;;;;;;5068745;28;20500;-69
2022/12/08 08:42:15;;;;;;;2.65;1.50;;;3.90;99.90;;;;;;5069465;28;20028;-68
2022/12/08 08:44:40;;;;;;;1.65;1.55;;;3.90;99.90;;;;;;5068020;28;20051;-69
2022/12/08 08:47:06;;;;;;;2.72;1.45;;;3.90;99.90;;;;;;5072302;28;20052;-69
2022/12/08 08:49:31;;;;;;;2.45;1.67;;;3.90;99.90;;;;;;5055436;28;20094;-69
2022/12/08 08:51:57;;;;;;;3.95;1.73;;;3.90;99.90;;;;;;5073110;28;20036;-69
2022/12/08 08:54:23;;;;;;;1.83;1.70;;;3.90;99.90;;;;;;5064661;28;20504;-68
2022/12/08 08:56:48;;;;;;;2.45;1.77;;;3.90;99.90;;;;;;5056315;28;20219;-71
2022/12/08 08:59:14;;;;;;;2.10;1.70;;;3.90;99.90;;;;;;5070982;28;20051;-69
2022/12/08 09:01:39;;;;;;;2.17;1.65;;;3.90;99.90;;;;;;5061209;28;20481;-68
2022/12/08 09:04:05;;;;;;;4.68;1.90;;;3.90;99.90;;;;;;5060857;28;20088;-68
2022/12/08 09:06:31;;;;;;;1.75;1.27;;;3.90;99.90;;;;;;5061821;28;20072;-69
2022/12/08 09:08:56;;;;;;;1.98;1.75;;;3.90;99.90;;;;;;5043935;28;20112;-69
2022/12/08 09:11:22;;;;;;;2.30;1.73;;;3.90;99.90;;;;;;5060748;28;20029;-68
2022/12/08 09:13:49;;;;;;;1.75;1.48;;;4.00;99.90;;;;;;5060379;28;20029;-68
2022/12/08 09:16:15;;;;;;;3.60;2.25;;;3.90;99.90;;;;;;5062065;28;20374;-68
2022/12/08 09:18:41;;;;;;;3.47;1.30;;;4.00;99.90;;;;;;5054868;28;20064;-67
2022/12/08 09:21:11;;;;;;;3.92;1.40;;;4.00;99.90;;;;;;5071230;28;20036;-69
2022/12/08 09:23:38;;;;;;;1.48;1.38;;;3.90;99.90;;;;;;5072813;28;20496;-68
2022/12/08 09:26:04;;;;;;;1.45;1.35;;;4.00;99.90;;;;;;5071842;28;20044;-68
2022/12/08 09:28:30;;;;;;;1.50;1.40;;;4.00;99.90;;;;;;5072884;28;20552;-67
2022/12/08 09:30:55;;;;;;;4.32;2.15;;;4.00;99.90;;;;;;5072411;28;20103;-68
2022/12/08 09:33:21;;;;;;;2.42;1.52;;;4.00;99.90;;;;;;5070787;28;20470;-68
2022/12/08 09:35:46;;;;;;;2.15;1.95;;;4.00;99.90;;;;;;5071454;28;20047;-68
2022/12/08 09:38:12;;;;;;;1.75;1.50;;;4.00;99.90;;;;;;5072328;28;20084;-68
2022/12/08 09:40:47;;;;;;;5.05;1.42;;;4.00;99.90;;;;;;5072515;28;20036;-67
2022/12/08 09:43:50;;;;;;;3.03;1.38;;;4.00;99.90;;;;;;5072611;28;20047;-68
2022/12/08 09:46:18;;;;;;;1.90;1.20;;;4.00;99.90;;;;;;5072200;28;20585;-68
2022/12/08 09:48:54;;;;;;;1.45;1.35;;;4.10;99.90;;;;;;5072460;28;20063;-69
2022/12/08 09:51:23;;;;;;;1.70;1.60;;;4.00;99.90;;;;;;5072281;28;20037;-67
2022/12/08 09:54:18;;;;;;;3.63;1.70;;;4.00;99.90;;;;;;5071074;28;20051;-68
2022/12/08 09:56:44;;;;;;;5.88;1.58;;;4.10;99.90;;;;;;5071751;28;20043;-68
2022/12/08 09:59:31;;;;;;;2.05;1.40;;;4.10;99.90;;;;;;5071465;28;20119;-68
2022/12/08 10:01:57;;;;;;;3.92;1.40;;;4.10;99.90;;;;;;5072422;28;20124;-67
2022/12/08 10:04:25;;;;;;;2.67;1.60;;;4.10;99.90;;;;;;5071284;28;20040;-67
2022/12/08 10:07:06;;;;;;;2.03;1.50;;;4.10;99.90;;;;;;5071690;28;20048;-67
2022/12/08 10:10:11;;;;;;;2.75;1.65;;;4.10;99.90;;;;;;5072012;28;20044;-67
2022/12/08 10:12:58;;;;;;;4.55;1.75;;;4.10;99.90;;;;;;5039318;28;20056;-68
2022/12/08 10:15:42;;;;;;;2.63;2.00;;;4.20;99.90;;;;;;5051002;28;20079;-69
2022/12/08 10:18:23;;;;;;;2.63;2.08;;;4.20;99.90;;;;;;5050858;28;20465;-69
2022/12/08 10:20:50;;;;;;;4.95;1.80;;;4.20;99.90;;;;;;5047750;28;20513;-68
2022/12/08 10:23:35;;;;;;;2.53;1.85;;;4.20;99.90;;;;;;5050624;28;20052;-68
2022/12/08 10:26:13;;;;;;;2.78;2.08;;;4.20;99.90;;;;;;5049548;28;20079;-69
2022/12/08 10:28:39;;;;;;;4.38;2.20;;;4.20;99.90;;;;;;5051802;28;20095;-69
2022/12/08 10:31:05;;;;;;;2.83;2.20;;;4.20;99.90;;;;;;5051311;28;20446;-68
2022/12/08 10:33:32;;;;;;;4.60;2.08;;;4.20;99.90;;;;;;5050399;28;20045;-69
2022/12/08 10:36:01;;;;;;;2.63;2.10;;;4.20;99.90;;;;;;5050112;28;20048;-68
2022/12/08 10:38:27;;;;;;;8.90;2.72;;;4.20;99.90;;;;;;5051495;28;20044;-69
2022/12/08 10:41:18;;;;;;;5.05;2.22;;;4.20;99.90;;;;;;5050290;28;20525;-68
2022/12/08 10:43:48;;;;;;;5.50;2.08;;;4.20;99.90;;;;;;5050519;28;20087;-69
2022/12/08 10:46:17;;;;;;;3.28;2.05;;;4.20;99.90;;;;;;5049086;28;20090;-69
2022/12/08 10:49:06;;;;;;;6.53;2.40;;;4.20;99.90;;;;;;5051586;28;20044;-68
2022/12/08 10:51:31;;;;;;;3.17;2.30;;;4.20;99.90;;;;;;5042643;28;20072;-68
2022/12/08 10:53:58;;;;;;;3.53;2.47;;;4.20;99.90;;;;;;5048424;28;20041;-68
2022/12/08 10:56:27;;;;;;;3.08;2.45;;;4.30;99.90;;;;;;5050573;28;20045;-68
2022/12/08 10:59:10;;;;;;;3.28;2.55;;;4.30;99.90;;;;;;5050446;28;20458;-68
2022/12/08 11:01:37;;;;;;;;;;;4.40;99.90;;;;;;5051144;28;20041;-68
2022/12/08 11:04:05;;;;;;;8.73;2.33;;;4.50;99.90;;;;;;5049720;28;19927;-68
2022/12/08 11:06:36;;;;;;;3.22;2.53;;;4.50;99.90;;;;;;5065803;28;20381;-67
2022/12/08 11:09:15;;;;;;;6.90;2.80;;;4.50;99.90;;;;;;5059221;28;20036;-68
2022/12/08 11:11:49;;;;;;;8.15;3.13;;;4.60;99.90;;;;;;5070884;28;20047;-69
2022/12/08 11:14:23;;;;;;;7.20;2.78;;;4.60;99.90;;;;;;5051319;28;20037;-69
2022/12/08 11:16:50;;;;;;;6.10;3.15;;;4.70;99.90;;;;;;5052784;28;20098;-69
2022/12/08 11:19:18;;;;;;;3.50;2.95;;;4.70;99.90;;;;;;5071002;28;20080;-69
2022/12/08 11:21:44;;;;;;;3.53;3.22;;;4.70;99.90;;;;;;5070144;28;20508;-70
2022/12/08 11:24:13;;;;;;;2.78;2.50;;;4.60;99.90;;;;;;5052068;28;20055;-69
2022/12/08 11:26:42;;;;;;;3.55;2.50;;;4.50;99.90;;;;;;5070585;28;20036;-68
2022/12/08 11:29:10;;;;;;;3.17;2.80;;;4.50;99.90;;;;;;5069439;28;20068;-69
2022/12/08 11:32:05;;;;;;;3.55;2.40;;;4.40;99.90;;;;;;5070524;28;20041;-69
2022/12/08 11:34:44;;;;;;;4.95;2.53;;;4.40;99.90;;;;;;5068408;28;20127;-69
2022/12/08 11:37:20;;;;;;;8.43;3.05;;;4.30;99.90;;;;;;5070940;28;20048;-68
2022/12/08 11:39:50;;;;;;;3.47;3.00;;;4.30;99.90;;;;;;5064288;28;20032;-69
2022/12/08 11:42:20;;;;;;;6.03;2.88;;;4.30;99.90;;;;;;5066145;28;20040;-69
2022/12/08 11:44:56;;;;;;;3.88;2.70;;;4.30;99.90;;;;;;5070016;28;20075;-69
2022/12/08 11:47:36;;;;;;;5.07;3.13;;;4.30;99.90;;;;;;5070899;28;20127;-69
2022/12/08 11:50:11;;;;;;;3.60;2.55;;;4.20;99.90;;;;;;5070941;28;20119;-69
2022/12/08 11:52:50;;;;;;;2.83;2.40;;;4.20;99.90;;;;;;5070734;28;20045;-68
2022/12/08 11:55:39;;;;;;;4.15;2.67;;;4.20;99.90;;;;;;5070185;28;20050;-69
2022/12/08 11:58:22;;;;;;;4.38;3.00;;;4.10;99.90;;;;;;5066658;28;20048;-68
2022/12/08 12:00:49;;;;;;;4.97;2.92;;;4.10;99.90;;;;;;5068678;28;20051;-70
2022/12/08 12:03:33;;;;;;;3.20;2.90;;;4.10;99.90;;;;;;5068809;28;20404;-70
2022/12/08 12:06:38;;;;;;;4.55;3.63;;;4.10;99.90;;;;;;5069292;28;20063;-70
2022/12/08 12:09:11;;;;;;;5.80;3.08;;;4.10;99.90;;;;;;5065724;28;20436;-70
2022/12/08 12:12:17;;;;;;;4.57;2.95;;;4.00;99.90;;;;;;5070239;28;20037;-70
2022/12/08 12:15:14;;;;;;;4.50;3.05;;;4.00;99.90;;;;;;5069754;28;20044;-70
2022/12/08 12:18:03;;;;;;;3.85;3.03;;;3.90;99.90;;;;;;5070315;28;20042;-70
2022/12/08 12:20:38;;;;;;;8.77;3.00;;;3.90;99.90;;;;;;5066990;28;20072;-70
2022/12/08 12:23:04;;;;;;;4.90;3.10;;;3.90;99.90;;;;;;5073724;28;20042;-70
2022/12/08 12:25:33;;;;;;;5.45;2.92;;;4.00;99.90;;;;;;5073391;28;20037;-69
2022/12/08 12:28:02;;;;;;;5.68;3.13;;;4.00;99.90;;;;;;5074251;28;20037;-71
2022/12/08 12:30:48;;;;;;;4.28;3.13;;;4.10;99.90;;;;;;5054399;28;20049;-70
2022/12/08 12:33:16;;;;;;;5.35;3.30;;;4.00;99.90;;;;;;5074076;28;20230;-70
2022/12/08 12:35:44;;;;;;;5.93;4.28;;;4.10;99.90;;;;;;5072828;28;20093;-71
2022/12/08 12:41:04;;;;;;;7.28;3.95;;;4.10;99.90;;;;;;5052940;28;20037;-70
2022/12/08 12:43:36;;;;;;;7.07;4.25;;;4.10;99.90;;;;;;5053385;28;20036;-71
2022/12/08 12:46:23;;;;;;;7.20;3.95;;;4.10;99.90;;;;;;5052777;28;20048;-70
2022/12/08 12:48:50;;;;;;;14.13;6.10;;;4.20;99.90;;;;;;5053468;28;20048;-70
2022/12/08 12:51:41;;;;;;;6.18;3.75;;;4.20;99.90;;;;;;5053520;28;20048;-70
2022/12/08 12:54:24;;;;;;;10.50;4.43;;;4.30;99.90;;;;;;5052842;28;20051;-70
2022/12/08 12:56:52;;;;;;;;;;;4.40;99.90;;;;;;5053592;28;20694;-70
2022/12/08 12:59:46;;;;;;;8.38;4.00;;;4.40;99.90;;;;;;5051369;28;19923;-70
2022/12/08 13:02:36;;;;;;;9.15;4.00;;;4.50;99.90;;;;;;5052460;28;20632;-70
2022/12/08 13:05:08;;;;;;;6.78;4.03;;;4.50;99.90;;;;;;5051049;28;20820;-70
2022/12/08 13:07:50;;;;;;;8.38;3.97;;;4.60;99.90;;;;;;5052545;28;20049;-72
2022/12/08 13:10:24;;;;;;;6.93;3.85;;;4.50;99.90;;;;;;5052629;28;20122;-69
2022/12/08 13:13:11;;;;;;;7.93;4.20;;;4.60;99.90;;;;;;5052893;28;20041;-70
2022/12/08 13:15:51;;;;;;;5.53;3.58;;;4.50;99.90;;;;;;5051978;28;20563;-69
2022/12/08 13:18:30;;;;;;;6.65;3.85;;;4.60;99.90;;;;;;5052827;28;20037;-68
2022/12/08 13:21:13;;;;;;;5.32;3.20;;;4.60;99.90;;;;;;5053457;28;20045;-69
2022/12/08 13:23:46;;;;;;;5.55;3.85;;;4.70;99.90;;;;;;5060546;28;20400;-70